createdAt,value
2022-07-26T03:58:22.795Z,22.40
2022-07-26T04:00:51.271Z,22.40
2022-07-26T04:03:19.743Z,22.10
2022-07-26T04:05:48.882Z,21.80
2022-07-26T04:08:18.257Z,21.40
2022-07-26T04:10:47.467Z,21.00
2022-07-26T04:13:15.971Z,20.60
2022-07-26T04:15:45.794Z,20.20
2022-07-26T04:18:15.515Z,19.80
2022-07-26T04:20:44.762Z,19.40
2022-07-26T04:23:13.597Z,19.30
2022-07-26T04:25:42.661Z,19.20
2022-07-26T04:28:11.281Z,19.20
2022-07-26T04:30:40.425Z,19.20
2022-07-26T04:33:10.486Z,19.20
2022-07-26T04:35:39.114Z,19.20
2022-07-26T04:38:07.837Z,19.20
2022-07-26T04:40:40.653Z,19.20
2022-07-26T04:43:15.684Z,19.20
2022-07-26T04:45:45.834Z,19.20
2022-07-26T04:48:16.123Z,19.20
2022-07-26T04:50:45.113Z,19.30
2022-07-26T04:53:14.437Z,19.30
2022-07-26T04:55:43.538Z,19.30
2022-07-26T04:58:12.300Z,19.30
2022-07-26T05:01:08.518Z,19.40
2022-07-26T05:03:30.634Z,19.40
2022-07-26T05:05:59.107Z,19.50
2022-07-26T05:08:27.532Z,19.60
2022-07-26T05:10:56.182Z,19.60
2022-07-26T05:13:29.746Z,19.60
2022-07-26T05:16:00.119Z,19.70
2022-07-26T05:18:31.894Z,19.70
2022-07-26T05:21:14.262Z,19.80
2022-07-26T05:23:42.938Z,19.80
2022-07-26T05:26:12.822Z,19.80
2022-07-26T05:28:41.495Z,19.80
2022-07-26T05:31:10.120Z,19.80
2022-07-26T05:33:40.115Z,19.80
2022-07-26T05:36:09.571Z,19.80
2022-07-26T05:38:38.195Z,19.80
2022-07-26T05:41:07.501Z,19.70
2022-07-26T05:43:41.030Z,19.60
2022-07-26T05:46:11.878Z,19.40
2022-07-26T05:48:42.049Z,19.40
2022-07-26T05:51:11.388Z,19.30
2022-07-26T05:53:41.221Z,19.30
2022-07-26T05:56:10.089Z,19.30
2022-07-26T05:58:38.671Z,19.40
2022-07-26T06:01:07.479Z,19.40
2022-07-26T06:03:36.121Z,19.50
2022-07-26T06:06:06.287Z,19.50
2022-07-26T06:08:37.196Z,19.60
2022-07-26T06:11:05.863Z,19.60
2022-07-26T06:13:34.358Z,19.70
2022-07-26T06:16:03.344Z,19.80
2022-07-26T06:18:31.823Z,19.80
2022-07-26T06:21:02.484Z,20.00
2022-07-26T06:23:34.797Z,20.00
2022-07-26T06:26:05.311Z,20.10
2022-07-26T06:28:40.995Z,20.10
2022-07-26T06:31:09.843Z,20.10
2022-07-26T06:33:38.583Z,20.10
2022-07-26T06:36:08.972Z,20.10
2022-07-26T06:38:39.091Z,20.10
2022-07-26T06:41:07.903Z,20.20
2022-07-26T06:43:36.590Z,20.20
2022-07-26T06:46:05.186Z,20.20
2022-07-26T06:48:33.847Z,20.20
2022-07-26T06:51:05.171Z,20.30
2022-07-26T06:53:33.652Z,20.30
2022-07-26T06:56:03.577Z,20.40
2022-07-26T06:58:32.150Z,20.50
2022-07-26T07:01:00.881Z,20.60
2022-07-26T07:03:29.394Z,20.60
2022-07-26T07:05:57.862Z,20.70
2022-07-26T07:08:26.414Z,20.70
2022-07-26T07:10:57.185Z,20.70
2022-07-26T07:13:28.369Z,20.80
2022-07-26T07:15:57.100Z,20.80
2022-07-26T07:18:25.734Z,20.80
2022-07-26T07:20:54.276Z,20.70
2022-07-26T07:23:23.443Z,20.80
2022-07-26T07:25:52.267Z,20.80
2022-07-26T07:28:20.930Z,20.90
2022-07-26T07:30:54.277Z,20.90
2022-07-26T07:33:23.341Z,20.80
2022-07-26T07:35:54.398Z,20.70
2022-07-26T07:38:22.986Z,20.60
2022-07-26T07:40:52.176Z,20.70
2022-07-26T07:43:20.656Z,20.70
2022-07-26T07:45:49.202Z,20.70
2022-07-26T07:48:19.212Z,20.60
2022-07-26T07:50:47.912Z,20.50
2022-07-26T07:53:17.509Z,20.40
2022-07-26T07:55:48.529Z,20.30
2022-07-26T07:58:18.914Z,20.20
2022-07-26T08:00:48.623Z,20.10
2022-07-26T08:03:19.333Z,20.00
2022-07-26T08:05:49.335Z,19.90
2022-07-26T08:08:22.395Z,19.80
2022-07-26T08:10:53.354Z,19.80
2022-07-26T08:13:23.655Z,19.80
2022-07-26T08:15:52.829Z,19.80
2022-07-26T08:18:24.027Z,19.80
2022-07-26T08:20:54.008Z,19.80
2022-07-26T08:23:23.137Z,19.80
2022-07-26T08:26:03.314Z,19.90
2022-07-26T08:28:47.281Z,19.90
2022-07-26T08:31:16.703Z,19.90
2022-07-26T08:33:47.090Z,19.80
2022-07-26T08:36:16.780Z,19.70
2022-07-26T08:38:47.821Z,19.60
2022-07-26T08:41:17.595Z,19.60
2022-07-26T08:43:53.092Z,19.60
2022-07-26T08:46:25.756Z,19.60
2022-07-26T08:48:58.601Z,19.60
2022-07-26T08:51:28.069Z,19.60
2022-07-26T08:54:05.376Z,19.60
2022-07-26T08:56:40.038Z,19.70
2022-07-26T08:59:21.022Z,19.70
2022-07-26T09:01:57.090Z,19.80
2022-07-26T09:04:32.084Z,19.70
2022-07-26T09:07:05.707Z,19.70
2022-07-26T09:09:36.327Z,19.80
2022-07-26T09:12:17.188Z,19.90
2022-07-26T09:14:47.565Z,20.00
2022-07-26T09:17:18.708Z,20.10
2022-07-26T09:20:06.182Z,20.10
2022-07-26T09:22:34.791Z,20.30
2022-07-26T09:25:04.023Z,20.30
2022-07-26T09:27:37.092Z,20.40
2022-07-26T09:30:10.531Z,20.60
2022-07-26T09:32:39.174Z,20.80
2022-07-26T09:35:44.559Z,20.90
2022-07-26T09:38:15.451Z,21.10
2022-07-26T09:40:46.813Z,21.10
2022-07-26T09:43:24.365Z,21.20
2022-07-26T09:46:07.547Z,21.40
2022-07-26T09:49:08.451Z,21.60
2022-07-26T09:51:39.780Z,21.50
2022-07-26T09:54:11.274Z,21.80
2022-07-26T09:56:48.829Z,21.90
2022-07-26T09:59:19.837Z,22.00
2022-07-26T10:01:49.364Z,22.00
2022-07-26T10:04:19.541Z,22.00
2022-07-26T10:06:49.773Z,21.90
2022-07-26T10:09:19.756Z,21.90
2022-07-26T10:11:54.316Z,21.80
2022-07-26T10:14:43.278Z,21.70
2022-07-26T10:17:43.166Z,21.70
2022-07-26T10:20:33.044Z,21.50
2022-07-26T10:23:04.981Z,21.60
2022-07-26T10:25:49.728Z,21.60
2022-07-26T10:28:26.928Z,21.50
2022-07-26T10:31:26.827Z,21.50
2022-07-26T10:33:56.651Z,21.40
2022-07-26T10:36:31.753Z,21.70
2022-07-26T10:39:14.117Z,21.70
2022-07-26T10:41:45.441Z,21.80
2022-07-26T10:44:22.341Z,21.80
2022-07-26T10:47:18.477Z,21.80
2022-07-26T10:49:57.764Z,22.00
2022-07-26T10:52:29.158Z,22.10
2022-07-26T10:55:19.700Z,22.00
2022-07-26T10:57:50.193Z,22.00
2022-07-26T11:00:22.367Z,22.10
2022-07-26T11:02:56.632Z,22.00
2022-07-26T11:05:31.023Z,22.00
2022-07-26T11:08:05.345Z,22.00
2022-07-26T11:10:37.552Z,21.90
2022-07-26T11:13:12.307Z,21.90
2022-07-26T11:15:43.090Z,22.10
2022-07-26T11:18:14.373Z,22.10
2022-07-26T11:20:44.221Z,22.10
2022-07-26T11:23:28.199Z,22.20
2022-07-26T11:26:12.900Z,22.20
2022-07-26T11:28:49.269Z,22.20
2022-07-26T11:31:20.050Z,22.10
2022-07-26T11:33:51.256Z,22.30
2022-07-26T11:36:20.843Z,22.30
2022-07-26T11:38:52.563Z,22.20
2022-07-26T11:41:34.597Z,22.20
2022-07-26T11:44:06.496Z,22.20
2022-07-26T11:46:38.404Z,22.20
2022-07-26T11:49:15.053Z,22.10
2022-07-26T11:51:51.638Z,22.10
2022-07-26T11:54:20.374Z,22.20
2022-07-26T11:56:55.719Z,22.10
2022-07-26T11:59:25.873Z,22.10
2022-07-26T12:01:55.071Z,22.20
2022-07-26T12:04:25.450Z,22.20
2022-07-26T12:06:55.427Z,22.30
2022-07-26T12:09:32.920Z,22.20
2022-07-26T12:12:08.388Z,22.20
2022-07-26T12:14:38.704Z,22.30
2022-07-26T12:17:15.374Z,22.40
2022-07-26T12:19:44.931Z,22.30
2022-07-26T12:22:15.410Z,22.10
2022-07-26T12:24:47.676Z,22.10
2022-07-26T12:27:19.841Z,22.10
2022-07-26T12:29:49.997Z,22.00
2022-07-26T12:32:20.109Z,22.00
2022-07-26T12:35:02.460Z,22.00
2022-07-26T12:37:40.275Z,21.90
2022-07-26T12:40:11.686Z,21.90
2022-07-26T12:42:43.212Z,21.80
2022-07-26T12:45:14.137Z,21.90
2022-07-26T12:47:44.409Z,21.90
2022-07-26T12:50:14.695Z,22.00
2022-07-26T12:52:43.798Z,22.00
2022-07-26T12:55:15.052Z,22.00
2022-07-26T12:57:47.663Z,22.00
2022-07-26T13:00:18.628Z,22.00
2022-07-26T13:02:47.594Z,22.00
2022-07-26T13:05:16.772Z,22.00
2022-07-26T13:07:45.668Z,22.00
2022-07-26T13:10:32.439Z,21.90
2022-07-26T13:13:03.851Z,21.80
2022-07-26T13:15:35.256Z,21.90
2022-07-26T13:18:07.670Z,21.80
2022-07-26T13:20:37.924Z,21.90
2022-07-26T13:23:11.182Z,22.00
2022-07-26T13:25:40.696Z,22.00
2022-07-26T13:28:10.883Z,22.00
2022-07-26T13:30:43.265Z,22.10
2022-07-26T13:33:12.348Z,22.20
2022-07-26T13:35:42.764Z,22.20
2022-07-26T13:38:11.685Z,22.30
2022-07-26T13:40:40.230Z,22.30
2022-07-26T13:43:10.374Z,22.30
2022-07-26T13:45:38.895Z,22.30
2022-07-26T13:48:08.008Z,22.40
2022-07-26T13:50:36.478Z,22.50
2022-07-26T13:53:05.828Z,22.70
2022-07-26T13:55:34.418Z,22.90
2022-07-26T13:58:07.729Z,22.90
2022-07-26T14:00:41.284Z,23.00
2022-07-26T14:03:10.194Z,23.20
2022-07-26T14:05:40.273Z,23.30
2022-07-26T14:08:08.761Z,23.60
2022-07-26T14:10:39.704Z,23.90
2022-07-26T14:13:09.164Z,24.10
2022-07-26T14:15:39.176Z,24.50
2022-07-26T14:18:07.808Z,24.70
2022-07-26T14:20:36.339Z,25.00
2022-07-26T14:23:04.891Z,24.90
2022-07-26T14:25:33.502Z,24.60
2022-07-26T14:28:02.248Z,24.70
2022-07-26T14:30:30.783Z,24.50
2022-07-26T14:33:01.463Z,24.60
2022-07-26T14:35:31.304Z,24.60
2022-07-26T14:38:00.663Z,24.60
2022-07-26T14:40:29.253Z,24.70
2022-07-26T14:42:57.887Z,24.60
2022-07-26T14:45:26.607Z,24.80
2022-07-26T14:47:55.204Z,25.00
2022-07-26T14:50:26.211Z,25.10
2022-07-26T14:52:55.846Z,25.20
2022-07-26T14:55:25.577Z,25.30
2022-07-26T14:57:54.602Z,25.50
2022-07-26T15:00:23.136Z,25.20
2022-07-26T15:02:51.879Z,25.00
2022-07-26T15:05:20.598Z,24.80
2022-07-26T15:07:50.522Z,25.00
2022-07-26T15:10:29.213Z,25.00
2022-07-26T15:12:58.492Z,24.90
2022-07-26T15:15:27.411Z,25.10
2022-07-26T15:17:56.291Z,24.70
2022-07-26T15:20:25.596Z,24.60
2022-07-26T15:22:55.720Z,24.40
2022-07-26T15:25:24.555Z,24.40
2022-07-26T15:27:53.774Z,24.20
2022-07-26T15:30:23.927Z,24.20
2022-07-26T15:32:54.964Z,24.20
2022-07-26T15:35:23.675Z,24.30
2022-07-26T15:37:52.206Z,24.30
2022-07-26T15:40:22.223Z,24.50
2022-07-26T15:42:53.029Z,24.60
2022-07-26T15:45:22.598Z,24.60
2022-07-26T15:47:57.357Z,24.50
2022-07-26T15:50:29.825Z,24.50
2022-07-26T15:52:58.323Z,24.30
2022-07-26T15:55:28.279Z,24.30
2022-07-26T15:57:56.761Z,24.30
2022-07-26T16:00:25.353Z,24.30
2022-07-26T16:02:54.256Z,24.30
2022-07-26T16:05:22.858Z,24.50
2022-07-26T16:07:51.342Z,24.60
2022-07-26T16:10:19.835Z,24.80
2022-07-26T16:12:49.637Z,24.80
2022-07-26T16:15:18.182Z,25.00
2022-07-26T16:17:46.633Z,25.20
2022-07-26T16:20:15.913Z,25.30
2022-07-26T16:22:44.479Z,25.20
2022-07-26T16:25:14.047Z,25.10
2022-07-26T16:27:43.875Z,25.20
2022-07-26T16:30:16.117Z,25.20
2022-07-26T16:32:44.900Z,25.20
2022-07-26T16:35:13.734Z,25.30
2022-07-26T16:37:42.592Z,25.30
2022-07-26T16:40:12.271Z,25.30
2022-07-26T16:42:40.779Z,25.20
2022-07-26T16:45:10.189Z,25.20
2022-07-26T16:47:40.015Z,25.20
2022-07-26T16:50:09.380Z,25.20
2022-07-26T16:52:37.931Z,25.00
2022-07-26T16:55:10.920Z,24.90
2022-07-26T16:57:39.686Z,24.90
2022-07-26T17:00:10.911Z,24.90
2022-07-26T17:02:40.946Z,24.80
2022-07-26T17:05:10.578Z,24.50
2022-07-26T17:07:39.129Z,24.40
2022-07-26T17:10:09.885Z,24.30
2022-07-26T17:12:40.979Z,24.20
2022-07-26T17:15:11.130Z,24.00
2022-07-26T17:17:42.917Z,24.00
2022-07-26T17:20:14.784Z,23.90
2022-07-26T17:22:43.340Z,23.80
2022-07-26T17:25:12.175Z,23.80
2022-07-26T17:27:40.700Z,23.70
2022-07-26T17:30:10.267Z,23.60
2022-07-26T17:32:40.252Z,23.60
2022-07-26T17:35:10.012Z,23.60
2022-07-26T17:37:38.480Z,23.60
2022-07-26T17:40:11.127Z,23.60
2022-07-26T17:42:40.048Z,23.50
2022-07-26T17:45:09.381Z,23.50
2022-07-26T17:47:37.841Z,23.50
2022-07-26T17:50:39.156Z,23.40
2022-07-26T17:52:57.914Z,23.20
2022-07-26T17:55:26.384Z,22.90
2022-07-26T17:57:54.812Z,22.80
2022-07-26T18:00:28.596Z,22.50
2022-07-26T18:02:58.581Z,22.30
2022-07-26T18:05:34.905Z,22.20
2022-07-26T18:08:04.871Z,22.10
2022-07-26T18:10:33.383Z,21.90
2022-07-26T18:13:01.976Z,21.80
2022-07-26T18:15:30.511Z,21.60
2022-07-26T18:17:58.947Z,21.50
2022-07-26T18:20:28.975Z,21.30
2022-07-26T18:22:59.184Z,21.20
2022-07-26T18:25:27.625Z,21.10
2022-07-26T18:27:56.102Z,21.10
2022-07-26T18:30:24.852Z,21.00
2022-07-26T18:32:53.408Z,20.90
2022-07-26T18:35:22.058Z,20.80
2022-07-26T18:37:53.051Z,20.70
2022-07-26T18:40:22.333Z,20.70
2022-07-26T18:42:51.335Z,20.60
2022-07-26T18:45:20.273Z,20.50
2022-07-26T18:47:48.765Z,20.50
2022-07-26T18:50:17.461Z,20.40
2022-07-26T18:52:46.301Z,20.30
2022-07-26T18:55:16.303Z,20.30
2022-07-26T18:57:45.818Z,20.20
2022-07-26T19:00:17.949Z,20.20
2022-07-26T19:02:48.060Z,20.10
2022-07-26T19:05:17.437Z,20.10
2022-07-26T19:07:46.235Z,20.00
2022-07-26T19:10:18.253Z,20.00
2022-07-26T19:12:50.371Z,20.00
2022-07-26T19:15:19.583Z,19.90
2022-07-26T19:17:48.267Z,19.80
2022-07-26T19:20:16.854Z,19.80
2022-07-26T19:22:47.378Z,19.70
2022-07-26T19:25:17.354Z,19.60
2022-07-26T19:27:45.942Z,19.60
2022-07-26T19:30:15.020Z,19.60
2022-07-26T19:32:43.489Z,19.50
2022-07-26T19:35:12.057Z,19.50
2022-07-26T19:37:40.567Z,19.40
2022-07-26T19:40:10.037Z,19.40
2022-07-26T19:42:42.153Z,19.30
2022-07-26T19:45:11.681Z,19.30
2022-07-26T19:47:40.265Z,19.30
2022-07-26T19:50:10.158Z,19.30
2022-07-26T19:52:38.776Z,19.20
2022-07-26T19:55:08.519Z,19.20
2022-07-26T19:57:37.199Z,19.10
2022-07-26T20:00:09.379Z,19.10
2022-07-26T20:02:41.725Z,19.10
2022-07-26T20:05:12.315Z,19.00
2022-07-26T20:07:40.858Z,19.00
2022-07-26T20:10:10.634Z,19.00
2022-07-26T20:12:39.562Z,18.90
2022-07-26T20:15:11.544Z,18.90
2022-07-26T20:17:41.445Z,18.90
2022-07-26T20:20:14.109Z,18.80
2022-07-26T20:22:42.562Z,18.80
2022-07-26T20:25:11.394Z,18.80
2022-07-26T20:27:40.080Z,18.80
2022-07-26T20:30:11.269Z,18.80
2022-07-26T20:32:39.807Z,18.80
2022-07-26T20:35:09.026Z,18.70
2022-07-26T20:37:37.719Z,18.70
2022-07-26T20:40:08.332Z,18.70
2022-07-26T20:42:38.926Z,18.60
2022-07-26T20:45:13.219Z,18.60
2022-07-26T20:47:43.102Z,18.50
2022-07-26T20:50:12.670Z,18.50
2022-07-26T20:52:41.427Z,18.50
2022-07-26T20:55:10.934Z,18.40
2022-07-26T20:57:39.548Z,18.40
2022-07-26T21:00:11.093Z,18.40
2022-07-26T21:02:41.154Z,18.40
2022-07-26T21:05:11.344Z,18.40
2022-07-26T21:07:58.560Z,18.40
2022-07-26T21:10:29.198Z,18.30
2022-07-26T21:13:00.496Z,18.40
2022-07-26T21:15:29.501Z,18.30
2022-07-26T21:18:01.206Z,18.30
2022-07-26T21:20:29.798Z,18.30
2022-07-26T21:23:12.776Z,18.30
2022-07-26T21:25:44.794Z,18.20
2022-07-26T21:28:13.427Z,18.20
2022-07-26T21:30:42.374Z,18.20
2022-07-26T21:33:12.187Z,18.20
2022-07-26T21:35:42.044Z,18.20
2022-07-26T21:38:10.890Z,18.20
2022-07-26T21:40:39.613Z,18.10
2022-07-26T21:43:08.451Z,18.10
2022-07-26T21:45:37.375Z,18.10
2022-07-26T21:48:06.164Z,18.10
2022-07-26T21:50:36.061Z,18.10
2022-07-26T21:53:04.739Z,18.00
2022-07-26T21:55:33.569Z,18.00
2022-07-26T21:58:02.050Z,18.00
2022-07-26T22:00:30.608Z,18.00
2022-07-26T22:02:59.112Z,18.00
2022-07-26T22:05:38.119Z,18.10
2022-07-26T22:08:10.345Z,18.10
2022-07-26T22:10:43.933Z,18.00
2022-07-26T22:13:14.450Z,18.10
2022-07-26T22:15:44.017Z,18.10
2022-07-26T22:18:12.752Z,18.20
2022-07-26T22:20:41.900Z,18.30
2022-07-26T22:23:13.589Z,18.40
2022-07-26T22:25:42.343Z,18.40
2022-07-26T22:28:12.063Z,18.30
2022-07-26T22:30:46.563Z,18.20
2022-07-26T22:33:15.117Z,18.20
2022-07-26T22:35:43.729Z,18.10
2022-07-26T22:38:14.073Z,18.00
2022-07-26T22:40:46.052Z,17.90
2022-07-26T22:43:15.229Z,18.10
2022-07-26T22:45:44.206Z,18.20
2022-07-26T22:48:13.094Z,18.00
2022-07-26T22:50:41.528Z,17.90
2022-07-26T22:53:10.018Z,17.90
2022-07-26T22:55:39.877Z,17.80
2022-07-26T22:58:08.317Z,17.80
2022-07-26T23:00:36.985Z,17.70
2022-07-26T23:03:11.836Z,17.80
2022-07-26T23:05:49.159Z,17.80
2022-07-26T23:08:44.435Z,17.80
2022-07-26T23:11:08.709Z,17.80
2022-07-26T23:13:37.349Z,17.80
2022-07-26T23:16:06.504Z,17.70
2022-07-26T23:18:35.484Z,17.70
2022-07-26T23:21:04.438Z,17.70
2022-07-26T23:23:33.333Z,17.70
2022-07-26T23:26:02.432Z,17.70
2022-07-26T23:28:37.626Z,17.70
2022-07-26T23:31:11.712Z,17.80
2022-07-26T23:33:51.301Z,17.80
2022-07-26T23:36:23.371Z,17.70
2022-07-26T23:38:52.108Z,17.60
2022-07-26T23:41:20.962Z,17.60
2022-07-26T23:43:51.727Z,17.60
2022-07-26T23:46:20.274Z,17.60
2022-07-26T23:48:49.331Z,17.50
2022-07-26T23:51:19.522Z,17.50
2022-07-26T23:53:48.424Z,17.50
2022-07-26T23:56:17.141Z,17.50
2022-07-26T23:58:45.686Z,17.40
